Time;durP1;ratioP1;P1;durP2;ratioP2;P2;SDS_P1;SDS_P2;PMS_P1;PMS_P2;Temp;Humidity;BMP_temperature;BMP_pressure;BME280_temperature;BME280_humidity;BME280_pressure;Samples;Min_cycle;Max_cycle;Signal;HPM_P1;HPM_P2
2023/09/23 00:01:45;;;;;;;1.27;0.60;;;;;;;12.38;100.00;99768.97;4963795;28;20682;-75
2023/09/23 00:04:14;;;;;;;1.25;0.65;;;;;;;12.34;100.00;99791.34;4977379;28;20173;-74
2023/09/23 00:06:42;;;;;;;2.88;0.50;;;;;;;12.24;100.00;99788.44;4962274;28;20046;-75
2023/09/23 00:09:16;;;;;;;2.25;0.70;;;;;;;12.15;100.00;99784.53;4952545;28;20082;-75
2023/09/23 00:11:47;;;;;;;1.65;0.57;;;;;;;12.13;100.00;99785.59;4972644;28;20126;-75
2023/09/23 00:14:16;;;;;;;0.88;0.60;;;;;;;12.15;100.00;99795.16;4974977;28;20058;-76
2023/09/23 00:16:46;;;;;;;0.73;0.60;;;;;;;12.17;100.00;99782.66;4992946;28;20046;-74
2023/09/23 00:19:15;;;;;;;;;;;;;;;12.24;100.00;99805.22;4985068;28;20074;-75
2023/09/23 00:21:45;;;;;;;1.02;0.55;;;;;;;12.08;100.00;99806.28;4977365;28;19922;-75
2023/09/23 00:24:15;;;;;;;0.45;0.40;;;;;;;12.08;100.00;99808.94;4974268;28;20050;-74
2023/09/23 00:26:48;;;;;;;1.05;0.52;;;;;;;12.04;100.00;99820.66;4976829;28;20096;-75
2023/09/23 00:29:18;;;;;;;0.88;0.60;;;;;;;11.98;100.00;99821.03;4971283;28;20438;-76
2023/09/23 00:31:46;;;;;;;1.52;0.73;;;;;;;11.87;100.00;99822.56;4974117;28;20066;-76
2023/09/23 00:34:16;;;;;;;1.85;0.50;;;;;;;11.86;100.00;99835.91;4981311;28;20042;-76
2023/09/23 00:36:45;;;;;;;;;;;;;;;11.83;100.00;99833.44;4990992;28;20563;-76
2023/09/23 00:39:14;;;;;;;0.70;0.60;;;;;;;11.81;100.00;99836.19;4982907;28;19926;-76
2023/09/23 00:41:45;;;;;;;1.88;0.43;;;;;;;11.83;100.00;99844.06;4991398;28;20042;-75
2023/09/23 00:44:13;;;;;;;0.95;0.63;;;;;;;11.93;100.00;99840.78;4974770;28;20105;-75
2023/09/23 00:46:46;;;;;;;0.73;0.60;;;;;;;11.98;100.00;99844.91;4962085;28;20050;-75
2023/09/23 00:49:15;;;;;;;1.55;0.60;;;;;;;11.98;100.00;99844.91;4965690;28;20074;-74
2023/09/23 00:51:43;;;;;;;4.78;0.50;;;;;;;12.00;100.00;99845.69;4977700;28;20043;-74
2023/09/23 00:54:13;;;;;;;1.85;0.50;;;;;;;11.98;100.00;99842.25;4957038;28;20403;-76
2023/09/23 00:56:42;;;;;;;;;;;;;;;11.97;100.00;99853.81;4975813;28;20053;-74
2023/09/23 00:59:16;;;;;;;1.15;0.47;;;;;;;11.85;100.00;99839.50;4985015;28;20357;-74
2023/09/23 01:01:53;;;;;;;1.67;0.57;;;;;;;11.91;100.00;99853.28;4989627;28;20077;-74
2023/09/23 01:04:21;;;;;;;1.90;0.52;;;;;;;11.85;100.00;99834.22;4976673;28;20043;-75
2023/09/23 01:06:50;;;;;;;1.58;0.50;;;;;;;11.75;100.00;99825.94;4973396;28;20073;-74
2023/09/23 01:09:21;;;;;;;0.90;0.65;;;;;;;11.90;100.00;99850.72;4977419;28;20038;-74
2023/09/23 01:11:51;;;;;;;0.68;0.38;;;;;;;11.96;100.00;99854.81;4964349;28;20041;-76
2023/09/23 01:14:21;;;;;;;0.75;0.52;;;;;;;12.01;100.00;99850.91;4996441;28;20050;-74
2023/09/23 01:16:51;;;;;;;1.90;0.63;;;;;;;12.12;100.00;99843.13;4979444;28;20058;-76
2023/09/23 01:19:20;;;;;;;2.28;0.50;;;;;;;12.09;100.00;99842.47;4985541;28;20064;-75
2023/09/23 01:21:55;;;;;;;1.15;0.45;;;;;;;12.05;100.00;99847.13;4987508;28;20613;-75
2023/09/23 01:24:29;;;;;;;0.85;0.40;;;;;;;11.97;100.00;99844.06;4987022;28;20133;-75
2023/09/23 01:26:58;;;;;;;0.65;0.57;;;;;;;11.94;100.00;99850.44;4973792;28;20080;-75
2023/09/23 01:29:28;;;;;;;0.50;0.47;;;;;;;11.98;100.00;99851.09;4986662;28;20081;-74
2023/09/23 01:32:13;;;;;;;0.90;0.40;;;;;;;11.99;100.00;99854.59;4972215;28;20038;-75
2023/09/23 01:34:41;;;;;;;0.93;0.50;;;;;;;11.97;100.00;99867.94;4984416;28;20114;-75
2023/09/23 01:37:10;;;;;;;2.15;0.50;;;;;;;11.92;100.00;99873.56;4997998;28;20042;-74
2023/09/23 01:39:41;;;;;;;0.80;0.52;;;;;;;11.91;100.00;99868.34;4989293;28;20057;-74
2023/09/23 01:42:11;;;;;;;2.33;0.50;;;;;;;11.90;100.00;99872.78;4993848;28;20105;-74
2023/09/23 01:44:41;;;;;;;1.75;0.38;;;;;;;11.91;100.00;99873.66;4981568;28;20054;-74
2023/09/23 01:47:09;;;;;;;2.73;0.80;;;;;;;11.90;100.00;99859.53;4995472;28;20066;-74
2023/09/23 01:49:38;;;;;;;1.27;0.63;;;;;;;11.98;100.00;99882.06;4970448;28;20804;-74
2023/09/23 01:52:08;;;;;;;;;;;;;;;11.98;100.00;99874.09;4974302;28;20053;-75
2023/09/23 01:54:36;;;;;;;1.52;0.75;;;;;;;11.99;100.00;99878.47;4993482;28;20064;-75
2023/09/23 01:57:06;;;;;;;1.45;0.60;;;;;;;12.00;100.00;99870.41;4980145;28;20092;-73
2023/09/23 01:59:34;;;;;;;1.25;0.45;;;;;;;12.18;100.00;99882.56;4986187;28;20046;-73
2023/09/23 02:02:05;;;;;;;0.85;0.47;;;;;;;12.20;100.00;99888.63;4991629;28;20038;-73
2023/09/23 02:04:35;;;;;;;1.55;0.50;;;;;;;12.27;100.00;99892.63;4966650;28;20054;-75
2023/09/23 02:07:07;;;;;;;2.58;0.50;;;;;;;12.23;100.00;99892.91;4991899;28;20054;-73
2023/09/23 02:09:37;;;;;;;0.75;0.50;;;;;;;12.25;100.00;99896.31;4974848;28;20046;-73
2023/09/23 02:12:10;;;;;;;1.20;0.50;;;;;;;12.27;100.00;99900.59;4959338;28;20547;-73
2023/09/23 02:14:43;;;;;;;2.38;0.52;;;;;;;12.27;100.00;99905.91;4981512;28;20050;-74
2023/09/23 02:17:11;;;;;;;0.90;0.68;;;;;;;12.14;100.00;99898.75;4991583;28;20069;-73
2023/09/23 02:19:42;;;;;;;2.08;0.38;;;;;;;12.04;100.00;99908.25;4978395;28;20074;-74
2023/09/23 02:22:10;;;;;;;1.92;0.70;;;;;;;12.01;100.00;99917.25;4972290;28;20557;-74
2023/09/23 02:24:40;;;;;;;0.50;0.45;;;;;;;12.04;100.00;99909.09;4976296;28;20045;-74
2023/09/23 02:27:10;;;;;;;0.98;0.60;;;;;;;11.99;100.00;99911.16;4981088;28;20062;-76
2023/09/23 02:29:40;;;;;;;1.63;0.70;;;;;;;11.92;100.00;99916.00;4990043;28;20057;-74
2023/09/23 02:32:08;;;;;;;2.05;0.60;;;;;;;11.88;100.00;99918.94;4986251;28;20109;-75
2023/09/23 02:34:39;;;;;;;1.48;0.50;;;;;;;11.84;100.00;99920.91;4979118;28;20054;-74
2023/09/23 02:37:07;;;;;;;;;;;;;;;11.78;100.00;99925.75;4980326;28;20495;-75
2023/09/23 02:39:35;;;;;;;0.63;0.40;;;;;;;11.61;100.00;99910.78;4972762;28;20330;-75
2023/09/23 02:42:05;;;;;;;0.70;0.50;;;;;;;11.65;100.00;99922.91;4968185;28;20054;-75
2023/09/23 02:44:34;;;;;;;0.47;0.43;;;;;;;11.63;100.00;99934.56;4970034;28;20065;-75
2023/09/23 02:47:02;;;;;;;0.50;0.50;;;;;;;11.64;100.00;99937.13;4950681;28;20050;-76
2023/09/23 02:49:32;;;;;;;0.50;0.40;;;;;;;11.60;100.00;99936.44;4984036;28;20061;-75
2023/09/23 02:52:05;;;;;;;1.33;0.47;;;;;;;11.54;100.00;99935.94;4991837;28;20069;-75
2023/09/23 02:54:33;;;;;;;1.23;0.57;;;;;;;11.44;100.00;99938.28;4980892;28;20051;-74
2023/09/23 02:57:02;;;;;;;2.45;0.57;;;;;;;11.38;100.00;99941.28;5002646;28;20046;-74
2023/09/23 02:59:31;;;;;;;1.38;0.57;;;;;;;11.28;100.00;99933.94;4983952;28;20050;-76
2023/09/23 03:02:01;;;;;;;1.17;0.43;;;;;;;11.32;100.00;99952.25;5002123;28;20102;-75
2023/09/23 03:04:32;;;;;;;1.80;0.60;;;;;;;11.27;100.00;99954.28;5006152;28;20080;-75
2023/09/23 03:07:04;;;;;;;2.47;0.73;;;;;;;11.19;100.00;99956.50;4993236;28;20423;-74
2023/09/23 03:09:43;;;;;;;0.70;0.65;;;;;;;11.16;100.00;99954.91;4990188;28;20479;-75
2023/09/23 03:12:15;;;;;;;2.78;0.70;;;;;;;11.15;100.00;99963.81;4990885;28;20449;-75
2023/09/23 03:14:45;;;;;;;1.33;0.63;;;;;;;11.10;100.00;99963.19;4980755;28;20117;-75
2023/09/23 03:17:21;;;;;;;2.20;0.50;;;;;;;11.07;100.00;99971.31;4978114;28;20049;-74
2023/09/23 03:19:52;;;;;;;0.93;0.60;;;;;;;11.03;100.00;99983.00;4987092;28;20034;-75
2023/09/23 03:22:21;;;;;;;0.93;0.68;;;;;;;11.03;100.00;99983.00;4986812;28;20042;-76
2023/09/23 03:24:50;;;;;;;1.85;0.80;;;;;;;11.08;100.00;99991.56;4987438;28;20038;-74
2023/09/23 03:27:18;;;;;;;1.50;0.57;;;;;;;11.21;100.00;99989.94;4979488;28;20117;-75
2023/09/23 03:29:49;;;;;;;2.13;0.80;;;;;;;11.28;100.00;99995.75;4983383;28;20148;-75
2023/09/23 03:32:20;;;;;;;0.55;0.55;;;;;;;11.34;100.00;99991.88;4990870;28;20035;-74
2023/09/23 03:34:50;;;;;;;1.55;0.68;;;;;;;11.30;100.00;99995.69;4976708;28;20042;-74
2023/09/23 03:37:19;;;;;;;1.90;0.70;;;;;;;11.23;100.00;100001.31;4958409;28;20046;-75
2023/09/23 03:39:46;;;;;;;1.38;0.60;;;;;;;11.18;100.00;99999.84;4992777;28;20046;-74
2023/09/23 03:42:16;;;;;;;0.90;0.70;;;;;;;11.10;100.00;99996.78;4971899;28;20042;-75
2023/09/23 03:44:44;;;;;;;0.60;0.60;;;;;;;11.06;100.00;99997.88;4981842;28;20046;-75
2023/09/23 03:47:13;;;;;;;1.60;0.63;;;;;;;10.99;100.00;100007.13;4992598;28;20062;-75
2023/09/23 03:49:43;;;;;;;2.72;0.80;;;;;;;10.94;100.00;100015.31;4978698;28;21341;-75
2023/09/23 03:52:13;;;;;;;2.75;0.90;;;;;;;10.96;100.00;100004.63;4965656;28;20038;-75
2023/09/23 03:54:41;;;;;;;0.70;0.70;;;;;;;10.94;100.00;100019.75;4990526;28;20388;-75
2023/09/23 03:57:09;;;;;;;3.25;0.90;;;;;;;10.88;100.00;100021.78;4976355;28;20038;-74
2023/09/23 03:59:39;;;;;;;2.95;1.10;;;;;;;10.75;100.00;100011.94;4992858;28;20050;-74
2023/09/23 04:02:07;;;;;;;4.45;1.15;;;;;;;10.78;100.00;100031.19;4966994;28;20133;-75
2023/09/23 04:04:37;;;;;;;2.08;0.88;;;;;;;10.74;100.00;100029.63;4972981;28;20050;-75
2023/09/23 04:07:08;;;;;;;3.80;1.10;;;;;;;10.69;100.00;100029.03;4975434;28;20455;-75
2023/09/23 04:09:37;;;;;;;7.57;1.63;;;;;;;10.68;100.00;100034.41;4975563;28;20049;-75
2023/09/23 04:12:07;;;;;;;1.77;0.85;;;;;;;10.68;100.00;100037.91;4966596;28;20498;-75
2023/09/23 04:14:37;;;;;;;1.25;1.10;;;;;;;10.69;100.00;100042.28;4964378;28;20054;-74
2023/09/23 04:17:07;;;;;;;1.02;0.93;;;;;;;10.68;100.00;100034.41;5000085;28;20061;-74
2023/09/23 04:19:35;;;;;;;2.72;1.30;;;;;;;10.82;100.00;100048.63;4979454;28;20118;-74
2023/09/23 04:22:05;;;;;;;1.30;1.13;;;;;;;10.95;100.00;100047.97;4954405;28;20586;-75
2023/09/23 04:24:35;;;;;;;1.20;1.10;;;;;;;11.01;100.00;100055.59;4975485;28;20050;-74
2023/09/23 04:27:03;;;;;;;1.40;0.80;;;;;;;11.02;100.00;100055.47;4992641;28;20042;-75
2023/09/23 04:29:32;;;;;;;4.05;1.50;;;;;;;11.11;100.00;100062.94;4987716;28;20050;-75
2023/09/23 04:32:04;;;;;;;1.73;1.10;;;;;;;11.13;100.00;100060.22;4979800;28;20066;-75
2023/09/23 04:34:35;;;;;;;1.70;1.00;;;;;;;11.17;100.00;100064.41;4979397;28;20060;-73
2023/09/23 04:37:04;;;;;;;2.33;1.50;;;;;;;11.19;100.00;100070.47;4978559;28;20046;-75
2023/09/23 04:39:35;;;;;;;2.95;1.60;;;;;;;11.19;100.00;100071.31;4989719;28;20122;-74
2023/09/23 04:42:05;;;;;;;1.33;1.20;;;;;;;11.05;100.00;100073.88;4974110;28;20061;-74
2023/09/23 04:44:34;;;;;;;2.60;1.30;;;;;;;10.95;100.00;100074.47;4992300;28;20046;-75
2023/09/23 04:47:04;;;;;;;3.00;1.35;;;;;;;10.99;100.00;100086.63;4994428;28;20058;-74
2023/09/23 04:49:32;;;;;;;4.57;1.38;;;;;;;11.05;100.00;100078.31;4982487;28;20943;-74
2023/09/23 04:52:00;;;;;;;1.98;1.52;;;;;;;11.06;100.00;100074.72;4999910;28;20128;-74
2023/09/23 04:54:30;;;;;;;2.67;1.55;;;;;;;11.11;100.00;100078.00;4994865;28;20047;-74
2023/09/23 04:57:03;;;;;;;2.55;1.33;;;;;;;11.14;100.00;100088.44;5006732;28;20034;-74
2023/09/23 04:59:32;;;;;;;1.75;1.25;;;;;;;11.18;100.00;100082.00;5009402;28;20065;-74
2023/09/23 05:02:03;;;;;;;3.25;1.73;;;;;;;11.25;100.00;100084.25;5006567;28;20073;-73
2023/09/23 05:04:34;;;;;;;2.83;1.35;;;;;;;11.28;100.00;100085.03;5004976;28;20117;-74
2023/09/23 05:07:03;;;;;;;2.75;1.55;;;;;;;11.20;100.00;100083.63;4990714;28;20050;-75
2023/09/23 05:09:32;;;;;;;3.63;1.75;;;;;;;11.08;100.00;100073.72;4995245;28;20114;-74
2023/09/23 05:12:02;;;;;;;5.22;2.03;;;;;;;11.01;100.00;100084.75;4972265;28;20048;-74
2023/09/23 05:14:32;;;;;;;4.15;2.03;;;;;;;10.94;100.00;100089.50;4976784;28;20050;-74
2023/09/23 05:17:04;;;;;;;2.38;1.95;;;;;;;10.89;100.00;100086.22;4978020;28;20038;-74
2023/09/23 05:19:33;;;;;;;2.38;1.70;;;;;;;10.93;100.00;100092.22;4963475;28;20144;-74
2023/09/23 05:22:02;;;;;;;2.65;1.77;;;;;;;10.98;100.00;100096.34;4984432;28;20049;-74
2023/09/23 05:24:30;;;;;;;3.35;2.35;;;;;;;10.97;100.00;100101.72;4979769;28;20158;-74
2023/09/23 05:27:01;;;;;;;2.17;1.92;;;;;;;10.94;100.00;100115.13;4994143;28;20058;-74
2023/09/23 05:29:30;;;;;;;3.90;2.10;;;;;;;10.95;100.00;100114.19;4975557;28;20057;-74
2023/09/23 05:32:00;;;;;;;3.15;2.08;;;;;;;10.99;100.00;100121.06;4970369;28;20043;-74
2023/09/23 05:34:29;;;;;;;3.20;2.30;;;;;;;11.05;100.00;100129.50;4964107;28;20085;-73
2023/09/23 05:36:57;;;;;;;2.88;2.50;;;;;;;10.97;100.00;100138.81;4992166;28;20533;-73
2023/09/23 05:39:27;;;;;;;3.28;2.40;;;;;;;10.87;100.00;100136.63;4975760;28;20042;-74
2023/09/23 05:41:55;;;;;;;4.88;2.78;;;;;;;10.79;100.00;100144.13;4970344;28;20046;-74
2023/09/23 05:44:25;;;;;;;3.70;2.70;;;;;;;10.75;100.00;100142.56;4995994;28;20046;-75
2023/09/23 05:46:54;;;;;;;8.02;3.25;;;;;;;10.71;100.00;100159.56;4981980;28;20054;-73
2023/09/23 05:49:22;;;;;;;4.93;2.80;;;;;;;10.68;100.00;100162.38;5000504;28;20062;-74
2023/09/23 05:51:54;;;;;;;5.18;3.03;;;;;;;10.66;100.00;100166.91;4961255;28;20060;-75
2023/09/23 05:54:23;;;;;;;3.40;2.85;;;;;;;10.63;100.00;100160.88;4976655;28;20117;-74
2023/09/23 05:56:51;;;;;;;3.40;3.10;;;;;;;10.67;100.00;100170.41;4994030;28;20471;-74
2023/09/23 05:59:19;;;;;;;5.72;3.10;;;;;;;10.66;100.00;100169.53;4977940;28;20398;-74
2023/09/23 06:01:51;;;;;;;4.85;3.15;;;;;;;10.67;100.00;100175.69;4987815;28;20050;-74
2023/09/23 06:04:22;;;;;;;5.47;3.58;;;;;;;10.67;100.00;100181.84;4976104;28;20549;-75
2023/09/23 06:06:54;;;;;;;4.85;3.85;;;;;;;10.60;100.00;100169.84;4982165;28;20137;-74
2023/09/23 06:09:23;;;;;;;;;;;;;;;10.65;100.00;100181.06;4991857;28;20039;-75
2023/09/23 06:11:51;;;;;;;4.10;3.70;;;;;;;10.66;100.00;100184.56;4984124;28;19926;-75
2023/09/23 06:14:19;;;;;;;6.45;4.30;;;;;;;10.65;100.00;100194.31;4993256;28;20060;-74
2023/09/23 06:16:49;;;;;;;4.90;3.58;;;;;;;10.76;100.00;100193.75;5009480;28;20125;-73
2023/09/23 06:19:19;;;;;;;3.88;3.47;;;;;;;11.04;100.00;100206.44;4983090;28;20173;-73
2023/09/23 06:21:48;;;;;;;3.40;3.10;;;;;;;11.19;100.00;100205.63;4972018;28;20062;-74
2023/09/23 06:24:16;;;;;;;4.45;3.42;;;;;;;11.31;100.00;100207.66;4955289;28;20170;-74
2023/09/23 06:26:45;;;;;;;6.85;3.72;;;;;;;11.28;100.00;100213.13;4995028;28;20042;-75
2023/09/23 06:29:14;;;;;;;6.90;4.07;;;;;;;11.20;100.00;100215.31;4959623;28;20050;-74
2023/09/23 06:31:42;;;;;;;6.18;4.15;;;;;;;11.19;100.00;100213.59;4955165;28;20062;-73
2023/09/23 06:34:14;;;;;;;6.57;4.10;;;;;;;11.31;100.00;100218.28;4986911;28;20038;-75
2023/09/23 06:36:43;;;;;;;5.93;4.03;;;;;;;11.41;100.00;100216.84;4980967;28;20150;-74
2023/09/23 06:39:11;;;;;;;4.25;3.60;;;;;;;11.33;100.00;100211.09;4991599;28;20050;-75
2023/09/23 06:41:40;;;;;;;8.77;4.38;;;;;;;11.32;100.00;100219.13;4972947;28;20061;-74
2023/09/23 06:44:07;;;;;;;6.80;4.50;;;;;;;11.30;100.00;100221.00;4990069;28;20038;-75
2023/09/23 06:46:35;;;;;;;5.70;3.80;;;;;;;11.43;100.00;100228.22;4989692;28;20051;-75
2023/09/23 06:49:05;;;;;;;7.35;4.07;;;;;;;11.50;100.00;100236.69;4991214;28;20047;-75
2023/09/23 06:51:33;;;;;;;5.07;4.15;;;;;;;11.58;100.00;100250.41;4982273;28;20249;-76
2023/09/23 06:54:07;;;;;;;8.98;4.30;;;;;;;11.65;100.00;100254.44;4971359;28;20456;-74
2023/09/23 06:56:36;;;;;;;9.48;4.40;;;;;;;11.74;100.00;100267.22;4991662;28;20065;-75
2023/09/23 06:59:04;;;;;;;5.38;4.10;;;;;;;11.81;100.00;100263.31;4988128;28;20042;-74
2023/09/23 07:01:33;;;;;;;4.95;4.43;;;;;;;11.87;100.00;100249.72;4949722;28;20906;-75
2023/09/23 07:04:06;;;;;;;6.97;4.40;;;;;;;12.00;100.00;100254.34;4967239;28;20112;-75
2023/09/23 07:06:35;;;;;;;8.45;4.30;;;;;;;12.16;100.00;100258.72;5014748;28;20054;-76
2023/09/23 07:09:05;;;;;;;4.93;4.43;;;;;;;12.36;100.00;100260.28;4997352;28;20143;-75
2023/09/23 07:11:33;;;;;;;8.18;4.20;;;;;;;12.61;100.00;100260.56;4976732;28;20495;-75
2023/09/23 07:14:05;;;;;;;5.18;4.10;;;;;;;12.83;100.00;100269.97;4995492;28;20085;-75
2023/09/23 07:16:34;;;;;;;5.95;4.50;;;;;;;13.22;100.00;100258.84;4995144;28;20069;-77
2023/09/23 07:19:03;;;;;;;6.10;4.25;;;;;;;13.39;100.00;100274.59;5009600;28;20034;-75
2023/09/23 07:21:31;;;;;;;6.35;3.53;;;;;;;13.38;100.00;100275.56;4995602;28;20056;-75
2023/09/23 07:23:59;;;;;;;7.20;3.58;;;;;;;13.35;100.00;100270.44;4987083;28;20101;-74
2023/09/23 07:26:28;;;;;;;6.38;4.10;;;;;;;13.35;100.00;100273.09;4994556;28;20061;-76
2023/09/23 07:28:57;;;;;;;4.20;3.50;;;;;;;13.55;100.00;100275.38;4997210;28;20065;-74
2023/09/23 07:31:26;;;;;;;4.35;3.67;;;;;;;13.50;100.00;100279.31;5012533;28;20050;-74
2023/09/23 07:33:55;;;;;;;5.50;3.90;;;;;;;13.31;100.00;100279.56;4969387;28;20030;-74
2023/09/23 07:36:23;;;;;;;5.03;4.15;;;;;;;13.12;100.00;100285.06;4996523;28;20049;-76
2023/09/23 07:38:53;;;;;;;4.95;4.45;;;;;;;13.11;100.00;100290.47;5004196;28;20072;-75
2023/09/23 07:41:22;;;;;;;4.45;4.05;;;;;;;13.08;100.00;100286.19;4989377;28;20250;-74
2023/09/23 07:43:54;;;;;;;7.20;4.20;;;;;;;13.30;100.00;100288.47;4971208;28;20042;-75
2023/09/23 07:46:23;;;;;;;6.20;4.50;;;;;;;13.49;100.00;100291.75;4997418;28;20073;-81
2023/09/23 07:48:52;;;;;;;8.38;3.80;;;;;;;13.61;100.00;100292.78;4993037;28;20065;-80
2023/09/23 07:51:20;;;;;;;7.25;4.13;;;;;;;13.56;100.00;100282.44;5005239;28;20118;-81
2023/09/23 07:53:48;;;;;;;5.38;3.85;;;;;;;13.51;100.00;100281.00;4986662;28;20042;-82
2023/09/23 07:56:16;;;;;;;5.22;3.40;;;;;;;13.69;100.00;100295.88;4992857;28;20681;-81
2023/09/23 07:58:47;;;;;;;4.53;3.65;;;;;;;13.67;100.00;100305.75;5009117;28;20034;-81
2023/09/23 08:01:17;;;;;;;6.30;3.85;;;;;;;13.55;100.00;100288.69;4990622;28;20046;-78
2023/09/23 08:03:45;;;;;;;3.88;3.08;;;;;;;13.67;100.00;100276.47;4991157;28;20148;-78
2023/09/23 08:06:20;;;;;;;4.93;3.13;;;;;;;13.87;100.00;100296.50;4994948;28;20125;-80
2023/09/23 08:08:49;;;;;;;5.72;2.88;;;;;;;13.98;100.00;100302.03;4988660;28;20042;-77
2023/09/23 08:11:17;;;;;;;5.65;2.78;;;;;;;13.88;100.00;100303.53;4963964;28;20521;-78
2023/09/23 08:13:45;;;;;;;4.85;2.65;;;;;;;13.44;100.00;100293.81;4976165;28;20050;-78
2023/09/23 08:16:14;;;;;;;7.75;3.58;;;;;;;13.52;100.00;100323.50;4986652;28;20057;-79
2023/09/23 08:18:45;;;;;;;5.90;2.90;;;;;;;13.32;100.00;100327.34;4974547;28;20054;-79
2023/09/23 08:21:17;;;;;;;3.40;2.40;;;;;;;13.29;100.00;100319.53;4991561;28;20511;-81
2023/09/23 08:23:51;;;;;;;4.75;2.35;;;;;;;13.20;100.00;100292.63;4995114;28;20426;-80
2023/09/23 08:26:22;;;;;;;5.18;2.78;;;;;;;13.61;100.00;100325.59;4990125;28;20050;-81
2023/09/23 08:28:50;;;;;;;;;;;;;;;13.83;100.00;100337.59;4961671;28;20408;-77
2023/09/23 08:31:19;;;;;;;4.70;2.40;;;;;;;13.89;100.00;100345.19;5011932;28;19922;-79
2023/09/23 08:33:49;;;;;;;7.03;2.72;;;;;;;13.76;100.00;100336.25;4989743;28;20058;-82
2023/09/23 08:36:17;;;;;;;7.27;2.30;;;;;;;13.76;100.00;100354.88;4997107;28;20057;-79
2023/09/23 08:38:52;;;;;;;6.28;2.00;;;;;;;13.67;100.00;100349.16;4994650;28;20046;-80
2023/09/23 08:41:23;;;;;;;5.57;2.85;;;;;;;13.51;100.00;100342.19;4990719;28;20056;-79
2023/09/23 08:43:57;;;;;;;5.35;2.47;;;;;;;13.34;100.00;100325.44;4975420;28;20431;-80
2023/09/23 08:46:58;;;;;;;3.60;2.45;;;;;;;13.31;100.00;100299.03;4979701;28;20050;-79
2023/09/23 08:49:47;;;;;;;5.38;2.40;;;;;;;13.61;100.00;100332.72;4997297;28;20466;-80
2023/09/23 08:52:20;;;;;;;4.47;2.30;;;;;;;13.88;100.00;100364.75;4993784;28;20476;-80
2023/09/23 08:54:53;;;;;;;6.10;2.38;;;;;;;14.22;100.00;100367.06;4978301;28;20050;-80
2023/09/23 08:57:23;;;;;;;5.70;2.10;;;;;;;14.24;100.00;100374.97;4995513;28;20475;-80
2023/09/23 08:59:52;;;;;;;3.45;2.03;;;;;;;14.23;100.00;100378.56;4997598;28;20042;-80
2023/09/23 09:02:25;;;;;;;5.45;2.15;;;;;;;14.16;100.00;100383.44;4968263;28;20137;-78
2023/09/23 09:04:57;;;;;;;5.25;2.00;;;;;;;14.48;100.00;100384.09;4983309;28;20061;-79
2023/09/23 09:07:26;;;;;;;3.95;2.13;;;;;;;14.52;100.00;100368.78;5016947;28;20118;-79
2023/09/23 09:09:54;;;;;;;4.45;2.15;;;;;;;14.72;100.00;100379.03;4995019;28;20093;-78
2023/09/23 09:12:26;;;;;;;6.18;2.75;;;;;;;14.96;100.00;100384.56;4967865;28;20038;-78
2023/09/23 09:14:57;;;;;;;3.05;1.80;;;;;;;15.05;100.00;100374.16;4980006;28;20192;-79
2023/09/23 09:17:27;;;;;;;3.75;1.98;;;;;;;15.00;100.00;100367.41;4982853;28;20046;-80
2023/09/23 09:20:23;;;;;;;3.65;1.90;;;;;;;15.35;100.00;100394.44;4997514;28;20061;-79
2023/09/23 09:22:53;;;;;;;5.68;1.50;;;;;;;15.24;100.00;100388.97;4983944;28;20046;-81
2023/09/23 09:25:21;;;;;;;2.92;1.67;;;;;;;15.44;100.00;100399.16;4993375;28;20113;-79
2023/09/23 09:27:52;;;;;;;3.83;1.50;;;;;;;15.63;100.00;100396.97;4994535;28;20045;-79
2023/09/23 09:30:23;;;;;;;2.45;1.42;;;;;;;15.30;100.00;100404.53;4994701;28;20046;-81
2023/09/23 09:33:19;;;;;;;2.55;1.40;;;;;;;14.89;100.00;100408.13;4992589;28;20047;-80
2023/09/23 09:36:11;;;;;;;1.92;1.50;;;;;;;14.67;100.00;100418.44;4957027;28;20098;-80
2023/09/23 09:38:55;;;;;;;2.42;1.35;;;;;;;14.59;100.00;100410.94;4991943;28;20054;-79
2023/09/23 09:41:34;;;;;;;5.07;2.00;;;;;;;14.50;100.00;100421.31;4970468;28;20061;-80
2023/09/23 09:44:07;;;;;;;3.78;1.50;;;;;;;14.37;100.00;100413.19;4975853;28;20114;-77
2023/09/23 09:46:44;;;;;;;3.13;1.30;;;;;;;14.34;100.00;100414.25;4985500;28;20133;-81
2023/09/23 09:49:16;;;;;;;3.90;1.60;;;;;;;14.62;100.00;100416.09;4982459;28;20074;-81
2023/09/23 09:51:48;;;;;;;4.30;1.52;;;;;;;15.04;100.00;100409.78;4976133;28;20177;-79
2023/09/23 09:54:21;;;;;;;4.65;1.50;;;;;;;15.47;100.00;100396.28;4970859;28;20047;-81
2023/09/23 09:56:52;;;;;;;3.05;1.30;;;;;;;15.81;100.00;100412.72;4979805;28;20043;-81
2023/09/23 09:59:26;;;;;;;3.25;1.40;;;;;;;15.92;100.00;100404.81;4993892;28;20039;-80
2023/09/23 10:01:56;;;;;;;3.80;1.20;;;;;;;16.07;100.00;100406.41;4978573;28;20047;-81
2023/09/23 10:07:44;;;;;;;3.65;1.33;;;;;;;16.52;100.00;100327.50;4980398;28;20043;-82
2023/09/23 10:10:17;;;;;;;2.72;0.93;;;;;;;17.10;100.00;100392.78;4979541;28;20142;-81
2023/09/23 10:13:07;;;;;;;2.05;1.30;;;;;;;16.91;100.00;100352.31;4997048;28;20051;-81
2023/09/23 10:15:40;;;;;;;3.50;0.88;;;;;;;17.42;100.00;100393.06;4991396;28;20043;-81
2023/09/23 10:18:39;;;;;;;2.25;1.00;;;;;;;17.70;95.01;100403.41;4970930;28;20055;-77
2023/09/23 10:21:23;;;;;;;1.95;0.93;;;;;;;17.76;93.63;100378.84;4985540;28;20043;-76
2023/09/23 10:23:55;;;;;;;2.65;0.93;;;;;;;17.69;86.39;100396.34;4960255;28;20100;-80
2023/09/23 10:26:30;;;;;;;2.67;0.70;;;;;;;17.36;91.23;100405.06;4994881;28;20039;-76
2023/09/23 10:28:59;;;;;;;4.55;0.85;;;;;;;17.19;88.81;100411.69;4973636;28;20039;-77
2023/09/23 10:31:31;;;;;;;5.68;4.32;;;;;;;17.07;93.21;100380.50;4979318;28;20076;-81
2023/09/23 10:34:04;;;;;;;5.00;2.67;;;;;;;17.61;92.77;100414.81;4971780;28;20267;-80
2023/09/23 10:36:32;;;;;;;3.97;1.42;;;;;;;17.83;86.84;100376.53;4988577;28;20514;-82
2023/09/23 10:39:06;;;;;;;;;;;;;;;17.90;87.21;100409.06;4989055;28;20046;-80
2023/09/23 10:41:37;;;;;;;1.67;1.05;;;;;;;17.77;85.90;100407.34;4973473;28;20437;-76
2023/09/23 10:44:07;;;;;;;3.00;1.13;;;;;;;17.79;81.12;100408.06;4981541;28;20050;-78
2023/09/23 10:46:36;;;;;;;2.63;1.15;;;;;;;17.99;82.77;100411.03;4956355;28;20441;-78
2023/09/23 10:49:05;;;;;;;1.95;1.10;;;;;;;18.31;83.39;100419.25;4958897;28;20044;-78
2023/09/23 10:51:33;;;;;;;3.63;2.17;;;;;;;18.64;79.27;100411.25;4958649;29;20083;-78
2023/09/23 10:54:02;;;;;;;4.85;1.80;;;;;;;18.65;76.32;100390.63;4950294;28;20047;-79
2023/09/23 10:56:34;;;;;;;3.72;1.02;;;;;;;18.43;78.61;100418.25;4972896;28;20400;-77
2023/09/23 10:59:04;;;;;;;3.45;1.33;;;;;;;18.10;80.80;100416.44;4951310;28;20039;-79
2023/09/23 11:01:33;;;;;;;4.00;1.45;;;;;;;18.22;83.40;100416.31;4954739;28;20314;-78
2023/09/23 11:04:04;;;;;;;4.15;0.80;;;;;;;18.28;81.06;100419.47;4963098;28;20048;-78
2023/09/23 11:06:38;;;;;;;1.77;1.30;;;;;;;18.50;79.77;100414.13;4974179;28;20051;-78
2023/09/23 11:09:07;;;;;;;4.47;2.40;;;;;;;18.54;77.14;100384.28;4969393;28;20085;-79
2023/09/23 11:11:36;;;;;;;4.00;1.10;;;;;;;19.04;76.16;100408.03;4959327;28;20038;-79
2023/09/23 11:14:15;;;;;;;3.72;1.30;;;;;;;18.70;70.71;100402.72;4951091;29;20571;-77
2023/09/23 11:16:45;;;;;;;3.60;1.23;;;;;;;18.57;76.40;100421.56;4979304;28;20057;-76
2023/09/23 11:19:13;;;;;;;4.18;1.35;;;;;;;18.65;76.87;100417.44;4952844;28;20051;-75
2023/09/23 11:21:46;;;;;;;6.10;1.05;;;;;;;18.87;74.17;100417.44;4966296;28;20487;-76
2023/09/23 11:24:18;;;;;;;2.85;1.15;;;;;;;18.83;75.00;100424.88;4971813;28;20063;-74
2023/09/23 11:26:47;;;;;;;4.10;1.00;;;;;;;18.83;75.10;100411.47;4968210;28;20047;-76
2023/09/23 11:29:17;;;;;;;4.38;1.50;;;;;;;19.00;75.91;100423.50;4955319;28;20043;-79
2023/09/23 11:31:48;;;;;;;3.78;1.02;;;;;;;19.15;74.99;100419.56;4958859;29;20075;-78
2023/09/23 11:34:27;;;;;;;5.60;1.35;;;;;;;19.04;72.02;100421.44;4952280;29;20045;-77
2023/09/23 11:36:55;;;;;;;3.28;1.30;;;;;;;18.67;72.82;100421.72;4967334;28;20051;-80
2023/09/23 11:39:24;;;;;;;2.97;1.35;;;;;;;18.47;75.60;100430.47;4968559;28;20059;-78
2023/09/23 11:41:57;;;;;;;4.20;2.28;;;;;;;18.64;78.17;100421.97;4979363;28;20041;-73